Noril'sk, Russia
Current Conditions -  °F | °C
As of 11:00 AM on Tuesday 23 Dec 2014 (Local Time) from USNN Reporting Station
Overcast Overcast  
Wind Chill: 14°   Ceiling: 600
Heat Index: 25°   Visibility: 6mi
Dew Point: 21°   Wind: 11mph
Humidity: 86%   Direction: 140°SE
Pressure: 29.91"   Gusts: NA
Location:  69.32°N, 88.2°E
Report Text: USNN 230400Z 14005MPS 9999 OVC006 M04/M06 Q1013 NOSIG RMKQFE754 QBB190 21410240
Loading
Personal Weather Stations






























Interactive Weather Map New forecast layout! Learn more

10-Day Weather Forecast

Advertisements
Track Severe Weather on mobile